Time;durP1;ratioP1;P1;durP2;ratioP2;P2;SDS_P1;SDS_P2;PMS_P1;PMS_P2;Temp;Humidity;BMP_temperature;BMP_pressure;BME280_temperature;BME280_humidity;BME280_pressure;Samples;Min_cycle;Max_cycle;Signal;HPM_P1;HPM_P2
2023/06/29 00:02:29;;;;;;;10.07;9.05;;;;;;;;;;10253448;28;20486;-59
2023/06/29 00:07:27;;;;;;;12.13;8.93;;;;;;;;;;10255988;28;20064;-59
2023/06/29 00:12:25;;;;;;;10.25;8.98;;;;;;;;;;10252916;28;20068;-59
2023/06/29 00:17:24;;;;;;;9.63;8.57;;;;;;;;;;10252521;28;20076;-60
2023/06/29 00:22:23;;;;;;;8.32;7.43;;;;;;;;;;10252095;28;20084;-58
2023/06/29 00:27:21;;;;;;;9.55;7.88;;;;;;;;;;10250901;28;20083;-59
2023/06/29 00:32:21;;;;;;;9.43;7.85;;;;;;;;;;10253928;28;20083;-59
2023/06/29 00:37:19;;;;;;;13.93;7.70;;;;;;;;;;10247105;28;20077;-59
2023/06/29 00:42:18;;;;;;;9.52;7.40;;;;;;;;;;10250681;28;20077;-59
2023/06/29 00:47:17;;;;;;;8.90;8.00;;;;;;;;;;10251809;28;20473;-59
2023/06/29 00:52:16;;;;;;;9.73;7.15;;;;;;;;;;10266076;28;20069;-60
2023/06/29 00:57:14;;;;;;;9.70;8.68;;;;;;;;;;10251356;28;20045;-59
2023/06/29 01:02:15;;;;;;;8.05;7.22;;;;;;;;;;10251132;28;20088;-60
2023/06/29 01:07:16;;;;;;;8.63;7.80;;;;;;;;;;10250622;28;20471;-60
2023/06/29 01:12:14;;;;;;;8.02;7.22;;;;;;;;;;10248988;28;20113;-59
2023/06/29 01:17:16;;;;;;;9.32;7.10;;;;;;;;;;10256383;28;20076;-58
2023/06/29 01:22:19;;;;;;;15.10;7.97;;;;;;;;;;10250309;28;20076;-59
2023/06/29 01:27:20;;;;;;;13.02;7.68;;;;;;;;;;10248992;28;20161;-59
2023/06/29 01:32:18;;;;;;;8.77;7.88;;;;;;;;;;10250499;28;20071;-59
2023/06/29 01:37:18;;;;;;;9.70;6.85;;;;;;;;;;10254770;28;20088;-59
2023/06/29 01:42:17;;;;;;;8.20;7.40;;;;;;;;;;10252076;28;20112;-59
2023/06/29 01:47:18;;;;;;;8.68;7.88;;;;;;;;;;10249334;28;20077;-59
2023/06/29 01:52:17;;;;;;;8.25;7.55;;;;;;;;;;10250730;28;20057;-59
2023/06/29 01:57:15;;;;;;;9.95;7.82;;;;;;;;;;10249431;28;20072;-59
2023/06/29 02:02:13;;;;;;;8.40;7.53;;;;;;;;;;10248990;28;20088;-59
2023/06/29 02:07:13;;;;;;;10.82;7.85;;;;;;;;;;10248196;28;20518;-59
2023/06/29 02:12:11;;;;;;;8.57;7.80;;;;;;;;;;10247430;28;20084;-60
2023/06/29 02:17:10;;;;;;;9.30;8.40;;;;;;;;;;10249254;28;20069;-60
2023/06/29 02:22:09;;;;;;;8.77;7.88;;;;;;;;;;10253168;28;20088;-60
2023/06/29 02:27:09;;;;;;;12.02;7.80;;;;;;;;;;10256773;28;20084;-60
2023/06/29 02:32:08;;;;;;;15.38;8.95;;;;;;;;;;10256339;28;20065;-60
2023/06/29 02:37:06;;;;;;;8.48;7.68;;;;;;;;;;10258056;28;20077;-59
2023/06/29 02:42:05;;;;;;;11.35;8.40;;;;;;;;;;10270867;28;20084;-59
2023/06/29 02:47:05;;;;;;;10.57;8.60;;;;;;;;;;10249928;28;20077;-60
2023/06/29 02:52:04;;;;;;;10.75;8.45;;;;;;;;;;10254856;28;20045;-60
2023/06/29 02:57:02;;;;;;;9.63;8.57;;;;;;;;;;10256300;28;20076;-60
2023/06/29 03:02:00;;;;;;;10.88;8.25;;;;;;;;;;10268858;28;20083;-59
2023/06/29 03:07:00;;;;;;;11.52;9.10;;;;;;;;;;10255252;28;20081;-59
2023/06/29 03:11:58;;;;;;;9.88;7.70;;;;;;;;;;10255471;28;20485;-58
2023/06/29 03:16:57;;;;;;;9.82;8.13;;;;;;;;;;10254405;28;20061;-59
2023/06/29 03:21:55;;;;;;;10.57;8.75;;;;;;;;;;10255113;28;20084;-59
2023/06/29 03:26:55;;;;;;;13.10;8.88;;;;;;;;;;10254805;28;20072;-59
2023/06/29 03:31:53;;;;;;;10.13;8.30;;;;;;;;;;10253066;28;20036;-59
2023/06/29 03:36:51;;;;;;;13.63;9.07;;;;;;;;;;10252448;28;20186;-60
2023/06/29 03:41:49;;;;;;;9.70;8.77;;;;;;;;;;10252655;28;20091;-60
2023/06/29 03:46:49;;;;;;;8.98;8.18;;;;;;;;;;10251173;28;20467;-59
2023/06/29 03:51:47;;;;;;;9.48;8.60;;;;;;;;;;10251143;28;20072;-61
2023/06/29 03:56:45;;;;;;;9.90;8.50;;;;;;;;;;10251358;28;20065;-60
2023/06/29 04:01:43;;;;;;;10.82;8.40;;;;;;;;;;10252692;28;20085;-60
2023/06/29 04:06:43;;;;;;;10.32;8.40;;;;;;;;;;10253410;28;20534;-59
2023/06/29 04:11:41;;;;;;;10.48;8.50;;;;;;;;;;10252114;28;20084;-59
2023/06/29 04:16:39;;;;;;;11.73;8.52;;;;;;;;;;10253289;28;20462;-59
2023/06/29 04:21:38;;;;;;;9.50;8.50;;;;;;;;;;10251869;28;20065;-59
2023/06/29 04:26:38;;;;;;;13.05;9.10;;;;;;;;;;10248972;28;20537;-60
2023/06/29 04:31:36;;;;;;;13.52;9.32;;;;;;;;;;10252556;28;20073;-59
2023/06/29 04:36:35;;;;;;;13.68;9.45;;;;;;;;;;10249815;28;20041;-59
2023/06/29 04:41:33;;;;;;;10.55;9.40;;;;;;;;;;10251197;28;20069;-59
2023/06/29 04:46:32;;;;;;;17.50;10.40;;;;;;;;;;10251746;28;20077;-58
2023/06/29 04:51:31;;;;;;;15.68;11.35;;;;;;;;;;10252457;28;20069;-59
2023/06/29 04:56:29;;;;;;;19.08;10.55;;;;;;;;;;10251213;28;20072;-59
2023/06/29 05:01:27;;;;;;;15.40;12.98;;;;;;;;;;10251088;28;20077;-60
2023/06/29 05:06:27;;;;;;;18.80;13.73;;;;;;;;;;10249013;28;20072;-60
2023/06/29 05:11:25;;;;;;;21.80;14.93;;;;;;;;;;10250132;28;20076;-60
2023/06/29 05:16:23;;;;;;;19.48;16.52;;;;;;;;;;10251394;28;20077;-60
2023/06/29 05:21:22;;;;;;;19.23;16.45;;;;;;;;;;10245309;28;20069;-59
2023/06/29 05:26:21;;;;;;;30.85;20.58;;;;;;;;;;10246298;28;20060;-58
2023/06/29 05:31:19;;;;;;;25.58;20.58;;;;;;;;;;10246083;28;20544;-59
2023/06/29 05:36:18;;;;;;;29.98;24.08;;;;;;;;;;10249475;28;20077;-58
2023/06/29 05:41:16;;;;;;;30.55;27.55;;;;;;;;;;10249763;28;20064;-59
2023/06/29 05:46:18;;;;;;;33.33;26.05;;;;;;;;;;10249450;28;20084;-59
2023/06/29 05:51:17;;;;;;;31.00;27.77;;;;;;;;;;10249355;28;20068;-59
2023/06/29 05:56:16;;;;;;;30.00;26.92;;;;;;;;;;10248753;28;20091;-59
2023/06/29 06:01:14;;;;;;;37.72;32.45;;;;;;;;;;10250489;28;20084;-59
2023/06/29 06:06:15;;;;;;;36.70;32.38;;;;;;;;;;10247908;28;20080;-59
2023/06/29 06:11:13;;;;;;;34.97;31.35;;;;;;;;;;10249027;28;20080;-59
2023/06/29 06:16:11;;;;;;;35.13;31.42;;;;;;;;;;10248262;28;20362;-60
2023/06/29 06:21:10;;;;;;;38.45;34.70;;;;;;;;;;10247009;28;20125;-59
2023/06/29 06:26:10;;;;;;;37.35;33.03;;;;;;;;;;10248137;28;20455;-59
2023/06/29 06:31:08;;;;;;;37.78;34.08;;;;;;;;;;10256564;28;20072;-59
2023/06/29 06:36:26;;;;;;;40.30;36.08;;;;;;;;;;10247682;28;20068;-60
2023/06/29 06:41:25;;;;;;;39.53;35.83;;;;;;;;;;10248360;28;20085;-60
2023/06/29 06:46:23;;;;;;;43.33;38.40;;;;;;;;;;10247040;28;20081;-59
2023/06/29 06:51:22;;;;;;;42.85;38.78;;;;;;;;;;10245345;28;20481;-59
2023/06/29 06:56:20;;;;;;;43.13;38.75;;;;;;;;;;10247702;28;20060;-60
2023/06/29 07:01:22;;;;;;;44.55;40.20;;;;;;;;;;10250220;28;20075;-59
2023/06/29 07:06:20;;;;;;;39.53;35.97;;;;;;;;;;10252257;28;20544;-59
2023/06/29 07:11:18;;;;;;;40.20;36.17;;;;;;;;;;10254003;28;20080;-60
2023/06/29 07:16:16;;;;;;;39.85;35.80;;;;;;;;;;10258876;28;20072;-60
2023/06/29 07:21:16;;;;;;;41.08;36.78;;;;;;;;;;10257209;28;20073;-60
2023/06/29 07:26:18;;;;;;;33.60;30.83;;;;;;;;;;10255235;28;20143;-59
2023/06/29 07:31:17;;;;;;;32.13;29.05;;;;;;;;;;10251802;28;20063;-60
2023/06/29 07:36:16;;;;;;;26.10;23.90;;;;;;;;;;10247643;28;20068;-60
2023/06/29 07:41:15;;;;;;;24.73;22.52;;;;;;;;;;10252891;28;20069;-60
2023/06/29 07:46:13;;;;;;;22.85;20.83;;;;;;;;;;10252322;28;20090;-60
2023/06/29 07:51:11;;;;;;;25.83;23.25;;;;;;;;;;10249499;28;20068;-60
2023/06/29 07:56:11;;;;;;;24.48;21.98;;;;;;;;;;10251810;28;20069;-60
2023/06/29 08:01:09;;;;;;;24.45;22.25;;;;;;;;;;10253471;28;20076;-60
2023/06/29 08:06:08;;;;;;;21.27;18.38;;;;;;;;;;10253035;28;20077;-60
2023/06/29 08:11:13;;;;;;;17.67;16.13;;;;;;;;;;10243394;28;20092;-58
2023/06/29 08:16:12;;;;;;;17.10;15.38;;;;;;;;;;10254296;28;20069;-60
2023/06/29 08:21:11;;;;;;;19.63;15.38;;;;;;;;;;10257171;28;20115;-59
2023/06/29 08:26:09;;;;;;;18.13;16.05;;;;;;;;;;10254272;28;20482;-59
2023/06/29 08:31:09;;;;;;;17.48;15.52;;;;;;;;;;10253874;28;20149;-59
2023/06/29 08:36:07;;;;;;;17.75;12.80;;;;;;;;;;10252385;28;20068;-60
2023/06/29 08:41:06;;;;;;;16.75;14.85;;;;;;;;;;10253751;28;20084;-59
2023/06/29 08:46:04;;;;;;;13.23;12.00;;;;;;;;;;10247955;28;20076;-59
2023/06/29 08:51:05;;;;;;;14.88;10.40;;;;;;;;;;10251244;28;20075;-60
2023/06/29 08:56:04;;;;;;;14.82;11.35;;;;;;;;;;10251107;28;20069;-61
2023/06/29 09:01:03;;;;;;;13.10;11.65;;;;;;;;;;10249414;28;20069;-59
2023/06/29 09:06:03;;;;;;;10.77;9.93;;;;;;;;;;10251421;28;20477;-60
2023/06/29 09:11:03;;;;;;;10.95;9.85;;;;;;;;;;10253091;28;20533;-60
2023/06/29 09:16:02;;;;;;;10.20;9.13;;;;;;;;;;10251958;28;20514;-60
2023/06/29 09:21:00;;;;;;;10.77;9.38;;;;;;;;;;10250809;28;20072;-60
2023/06/29 09:25:59;;;;;;;9.80;8.52;;;;;;;;;;10252051;28;20076;-60
2023/06/29 09:31:06;;;;;;;11.18;9.15;;;;;;;;;;10253616;28;20075;-60
2023/06/29 09:36:06;;;;;;;14.52;10.50;;;;;;;;;;10250605;28;20077;-61
2023/06/29 09:41:07;;;;;;;9.38;8.48;;;;;;;;;;10249930;28;20084;-61
2023/06/29 09:46:08;;;;;;;10.57;9.18;;;;;;;;;;10248065;28;20574;-60
2023/06/29 09:51:08;;;;;;;13.23;9.00;;;;;;;;;;10243374;28;20084;-59
2023/06/29 09:56:08;;;;;;;8.68;7.85;;;;;;;;;;10245527;28;20064;-59
2023/06/29 10:01:09;;;;;;;10.95;7.72;;;;;;;;;;10245277;28;20079;-59
2023/06/29 10:06:12;;;;;;;9.15;7.53;;;;;;;;;;10249212;28;20092;-60
2023/06/29 10:11:10;;;;;;;8.02;6.22;;;;;;;;;;10249541;28;20084;-61
2023/06/29 10:16:11;;;;;;;10.45;5.40;;;;;;;;;;10247171;28;20072;-60
2023/06/29 10:21:09;;;;;;;7.55;5.85;;;;;;;;;;10248335;28;20068;-59
2023/06/29 10:26:08;;;;;;;5.68;4.75;;;;;;;;;;10249754;28;20069;-59
2023/06/29 10:31:07;;;;;;;6.00;4.65;;;;;;;;;;10243299;28;20061;-61
2023/06/29 10:36:06;;;;;;;5.45;4.75;;;;;;;;;;10247433;28;20065;-60
2023/06/29 10:41:06;;;;;;;4.90;4.40;;;;;;;;;;10249408;28;20509;-60
2023/06/29 10:46:07;;;;;;;7.22;4.70;;;;;;;;;;10256418;28;20077;-60
2023/06/29 10:51:09;;;;;;;3.90;3.22;;;;;;;;;;10256790;28;20506;-60
2023/06/29 10:56:27;;;;;;;6.95;3.70;;;;;;;;;;10252622;28;20123;-60
2023/06/29 11:01:26;;;;;;;5.72;3.30;;;;;;;;;;10254688;28;20079;-60
2023/06/29 11:06:25;;;;;;;5.82;3.58;;;;;;;;;;10256184;28;20080;-60
2023/06/29 11:11:45;;;;;;;5.60;3.22;;;;;;;;;;10254709;28;20073;-60
2023/06/29 11:16:43;;;;;;;4.95;3.55;;;;;;;;;;10254518;28;20498;-61
2023/06/29 11:21:43;;;;;;;4.05;3.65;;;;;;;;;;10254728;28;20061;-59
2023/06/29 11:26:42;;;;;;;7.80;3.80;;;;;;;;;;10254961;28;20073;-61
2023/06/29 11:31:40;;;;;;;4.90;2.95;;;;;;;;;;10253663;28;20061;-60
2023/06/29 11:36:40;;;;;;;5.15;3.30;;;;;;;;;;10254886;28;20071;-61
2023/06/29 11:41:47;;;;;;;4.68;2.80;;;;;;;;;;10254165;28;20069;-61
2023/06/29 11:46:46;;;;;;;2.70;2.50;;;;;;;;;;10254387;28;20089;-61
2023/06/29 11:51:56;;;;;;;2.90;2.60;;;;;;;;;;10253536;28;20463;-60
2023/06/29 11:56:56;;;;;;;6.22;3.08;;;;;;;;;;10253306;28;20068;-60
2023/06/29 12:01:54;;;;;;;3.10;2.30;;;;;;;;;;10248271;28;20141;-60
2023/06/29 12:06:53;;;;;;;4.47;4.07;;;;;;;;;;10248056;28;20091;-61
2023/06/29 12:12:02;;;;;;;2.72;2.53;;;;;;;;;;10252204;28;20069;-61
2023/06/29 12:17:00;;;;;;;4.53;2.67;;;;;;;;;;10254229;28;20076;-60
2023/06/29 12:22:01;;;;;;;4.45;2.40;;;;;;;;;;10252659;28;20060;-61
2023/06/29 12:27:02;;;;;;;3.08;1.95;;;;;;;;;;10253233;28;20080;-58
2023/06/29 12:32:00;;;;;;;2.88;2.05;;;;;;;;;;10253101;28;20084;-60
2023/06/29 12:36:59;;;;;;;2.22;1.83;;;;;;;;;;10259429;28;20069;-60
2023/06/29 12:41:58;;;;;;;3.60;1.90;;;;;;;;;;10252253;28;20502;-60
2023/06/29 12:46:57;;;;;;;8.05;2.67;;;;;;;;;;10250580;28;20092;-61
2023/06/29 12:51:56;;;;;;;2.50;2.10;;;;;;;;;;10253956;28;20048;-60
2023/06/29 12:56:54;;;;;;;2.65;2.20;;;;;;;;;;10248066;28;20080;-60
2023/06/29 13:01:52;;;;;;;3.55;2.03;;;;;;;;;;10247484;28;20092;-60
2023/06/29 13:06:54;;;;;;;4.82;2.38;;;;;;;;;;10247342;28;20077;-60
2023/06/29 13:11:52;;;;;;;3.78;1.90;;;;;;;;;;10246660;28;20486;-60
2023/06/29 13:16:51;;;;;;;4.13;2.22;;;;;;;;;;10250722;28;20362;-60
2023/06/29 13:21:49;;;;;;;5.07;2.33;;;;;;;;;;10249904;28;20440;-60
2023/06/29 13:26:49;;;;;;;2.90;2.60;;;;;;;;;;10249730;28;20084;-60
2023/06/29 13:31:47;;;;;;;4.93;1.92;;;;;;;;;;10249970;28;20072;-60
2023/06/29 13:36:46;;;;;;;2.67;2.10;;;;;;;;;;10250940;28;20080;-60
2023/06/29 13:41:44;;;;;;;7.22;2.00;;;;;;;;;;10249239;28;20072;-60
2023/06/29 13:46:44;;;;;;;4.53;2.53;;;;;;;;;;10249084;28;20116;-59
2023/06/29 13:51:43;;;;;;;4.22;2.70;;;;;;;;;;10248714;28;20068;-60
2023/06/29 13:56:43;;;;;;;4.68;3.00;;;;;;;;;;10248809;28;20103;-60
2023/06/29 14:01:41;;;;;;;4.30;2.90;;;;;;;;;;10250292;28;20116;-61
2023/06/29 14:06:42;;;;;;;7.18;6.47;;;;;;;;;;10248959;28;20087;-61
2023/06/29 14:11:41;;;;;;;7.45;3.22;;;;;;;;;;10249623;28;20506;-61
2023/06/29 14:16:39;;;;;;;5.18;2.80;;;;;;;;;;10248545;28;20072;-60
2023/06/29 14:21:37;;;;;;;4.30;2.40;;;;;;;;;;10252946;28;20073;-60
2023/06/29 14:26:37;;;;;;;9.90;3.72;;;;;;;;;;10256591;28;20076;-60
2023/06/29 14:31:36;;;;;;;3.75;2.80;;;;;;;;;;10256227;28;20069;-60
2023/06/29 14:36:34;;;;;;;3.95;2.60;;;;;;;;;;10255513;28;20532;-60
2023/06/29 14:41:34;;;;;;;5.03;3.63;;;;;;;;;;10264034;28;20499;-60
2023/06/29 14:46:34;;;;;;;3.40;2.55;;;;;;;;;;10261692;28;21246;-60
2023/06/29 14:51:32;;;;;;;3.30;2.67;;;;;;;;;;10258335;28;20457;-60
2023/06/29 14:56:31;;;;;;;6.35;2.75;;;;;;;;;;10266324;28;20076;-61
2023/06/29 15:01:30;;;;;;;3.97;2.83;;;;;;;;;;10269780;28;20068;-60
2023/06/29 15:06:29;;;;;;;5.03;2.45;;;;;;;;;;10255391;28;20088;-60
2023/06/29 15:11:27;;;;;;;3.22;2.35;;;;;;;;;;10256542;28;20529;-60
2023/06/29 15:16:27;;;;;;;5.43;2.72;;;;;;;;;;10257655;28;20072;-61
2023/06/29 15:21:25;;;;;;;10.70;3.47;;;;;;;;;;10252550;28;20077;-61
2023/06/29 15:26:26;;;;;;;7.32;3.13;;;;;;;;;;10259253;28;20088;-60
2023/06/29 15:31:24;;;;;;;4.35;2.70;;;;;;;;;;10254794;28;20065;-62
2023/06/29 15:36:22;;;;;;;3.35;2.60;;;;;;;;;;10261371;28;20077;-61
2023/06/29 15:41:21;;;;;;;4.65;3.00;;;;;;;;;;10261852;28;20511;-61
2023/06/29 15:46:20;;;;;;;9.13;4.88;;;;;;;;;;10267568;28;20092;-60
2023/06/29 15:51:18;;;;;;;5.57;3.25;;;;;;;;;;10263674;28;20088;-61
2023/06/29 15:56:17;;;;;;;4.53;3.25;;;;;;;;;;10257826;28;20068;-60
2023/06/29 16:01:15;;;;;;;4.20;3.00;;;;;;;;;;10264312;28;20076;-60
2023/06/29 16:06:14;;;;;;;7.68;2.17;;;;;;;;;;10253587;28;20068;-61
2023/06/29 16:11:13;;;;;;;7.93;4.38;;;;;;;;;;10249823;28;20499;-61
2023/06/29 16:16:15;;;;;;;6.80;2.80;;;;;;;;;;10249413;28;20522;-61
2023/06/29 16:21:14;;;;;;;6.50;2.40;;;;;;;;;;10254747;28;20099;-60
2023/06/29 16:26:13;;;;;;;5.03;3.03;;;;;;;;;;10253226;28;20526;-61
2023/06/29 16:31:16;;;;;;;5.45;2.30;;;;;;;;;;10251678;28;20080;-60
2023/06/29 16:36:24;;;;;;;6.55;2.50;;;;;;;;;;10262001;28;20545;-60
2023/06/29 16:41:25;;;;;;;5.22;3.25;;;;;;;;;;10264257;28;20073;-60
2023/06/29 16:46:23;;;;;;;10.73;3.38;;;;;;;;;;10252212;28;20084;-61
2023/06/29 16:51:27;;;;;;;5.07;2.65;;;;;;;;;;10249032;28;20107;-61
2023/06/29 16:56:27;;;;;;;5.25;3.25;;;;;;;;;;10249669;28;20499;-61
2023/06/29 17:01:25;;;;;;;3.65;3.00;;;;;;;;;;10248605;28;20073;-60
2023/06/29 17:06:24;;;;;;;4.85;3.10;;;;;;;;;;10249703;28;20537;-60
2023/06/29 17:11:23;;;;;;;3.10;2.67;;;;;;;;;;10247827;28;20077;-60
2023/06/29 17:16:24;;;;;;;5.25;3.42;;;;;;;;;;10250746;28;20057;-60
2023/06/29 17:21:23;;;;;;;7.38;3.35;;;;;;;;;;10250598;28;20083;-59
2023/06/29 17:26:22;;;;;;;3.97;2.85;;;;;;;;;;10251519;28;20361;-60
2023/06/29 17:31:24;;;;;;;7.13;3.13;;;;;;;;;;10252466;28;20092;-60
2023/06/29 17:36:22;;;;;;;9.43;2.97;;;;;;;;;;10251476;28;20510;-60
2023/06/29 17:41:20;;;;;;;6.07;2.67;;;;;;;;;;10263549;28;20100;-60
2023/06/29 17:46:19;;;;;;;4.43;2.90;;;;;;;;;;10253000;28;20428;-61
2023/06/29 17:51:19;;;;;;;5.93;3.25;;;;;;;;;;10248830;28;20076;-60
2023/06/29 17:56:17;;;;;;;6.78;3.53;;;;;;;;;;10248926;28;20072;-60
2023/06/29 18:01:15;;;;;;;3.83;3.35;;;;;;;;;;10266691;28;20541;-60
2023/06/29 18:06:13;;;;;;;6.97;4.20;;;;;;;;;;10245165;28;20064;-60
2023/06/29 18:11:13;;;;;;;8.88;7.97;;;;;;;;;;10248554;28;20187;-61
2023/06/29 18:16:11;;;;;;;4.57;3.63;;;;;;;;;;10251922;28;20080;-60
2023/06/29 18:21:09;;;;;;;9.82;5.82;;;;;;;;;;10249398;28;20068;-60
2023/06/29 18:26:08;;;;;;;8.57;4.88;;;;;;;;;;10249114;28;20076;-59
2023/06/29 18:31:07;;;;;;;6.07;3.67;;;;;;;;;;10245519;28;20077;-60
2023/06/29 18:36:06;;;;;;;4.20;2.70;;;;;;;;;;10248290;28;20079;-61
2023/06/29 18:41:04;;;;;;;6.90;4.35;;;;;;;;;;10250815;28;20457;-59
2023/06/29 18:46:02;;;;;;;11.18;6.95;;;;;;;;;;10247382;28;20073;-60
2023/06/29 18:51:02;;;;;;;3.92;3.53;;;;;;;;;;10246791;28;20083;-60
2023/06/29 18:56:00;;;;;;;6.22;3.38;;;;;;;;;;10248013;28;20471;-60
2023/06/29 19:00:58;;;;;;;3.80;3.15;;;;;;;;;;10246613;28;20459;-60
2023/06/29 19:05:57;;;;;;;4.90;2.85;;;;;;;;;;10249071;28;20068;-60
2023/06/29 19:10:56;;;;;;;3.92;2.67;;;;;;;;;;10257007;28;20079;-60
2023/06/29 19:15:55;;;;;;;4.57;2.95;;;;;;;;;;10255376;28;20072;-61
2023/06/29 19:20:53;;;;;;;5.80;3.17;;;;;;;;;;10254647;28;20079;-60
2023/06/29 19:25:52;;;;;;;3.20;2.90;;;;;;;;;;10256215;28;20065;-60
2023/06/29 19:30:51;;;;;;;6.80;3.10;;;;;;;;;;10258677;28;20076;-60
2023/06/29 19:35:49;;;;;;;6.80;3.05;;;;;;;;;;10264468;28;20072;-61
2023/06/29 19:40:47;;;;;;;6.70;2.83;;;;;;;;;;10265288;28;20073;-60
2023/06/29 19:45:47;;;;;;;6.00;3.25;;;;;;;;;;10247764;28;20068;-61
2023/06/29 19:50:49;;;;;;;4.15;2.60;;;;;;;;;;10257298;28;20073;-60
2023/06/29 19:55:48;;;;;;;12.57;3.10;;;;;;;;;;10255446;28;20076;-60
2023/06/29 20:00:46;;;;;;;5.40;3.25;;;;;;;;;;10266411;28;20073;-61
2023/06/29 20:05:45;;;;;;;4.65;2.72;;;;;;;;;;10254126;28;20072;-59
2023/06/29 20:10:45;;;;;;;4.85;2.92;;;;;;;;;;10253440;28;20073;-60
2023/06/29 20:15:44;;;;;;;4.68;2.83;;;;;;;;;;10252970;28;20539;-61
2023/06/29 20:20:43;;;;;;;5.20;3.20;;;;;;;;;;10249660;28;20080;-61
2023/06/29 20:25:41;;;;;;;3.05;2.50;;;;;;;;;;10252198;28;20072;-61
2023/06/29 20:30:42;;;;;;;3.83;2.67;;;;;;;;;;10251583;28;20079;-61
2023/06/29 20:35:40;;;;;;;4.90;3.65;;;;;;;;;;10252301;28;20068;-61
2023/06/29 20:40:39;;;;;;;3.92;2.63;;;;;;;;;;10250775;28;20064;-61
2023/06/29 20:45:38;;;;;;;5.70;2.63;;;;;;;;;;10249869;28;20095;-61
2023/06/29 20:50:37;;;;;;;5.30;2.70;;;;;;;;;;10254150;28;20069;-61
2023/06/29 20:55:35;;;;;;;3.42;2.88;;;;;;;;;;10251505;28;20072;-61
2023/06/29 21:00:34;;;;;;;5.68;2.95;;;;;;;;;;10255415;28;20446;-60
2023/06/29 21:05:33;;;;;;;5.28;3.28;;;;;;;;;;10250443;28;20073;-60
2023/06/29 21:10:32;;;;;;;5.15;2.80;;;;;;;;;;10251709;28;20061;-59
2023/06/29 21:15:31;;;;;;;3.58;2.88;;;;;;;;;;10261631;28;20072;-59
2023/06/29 21:20:29;;;;;;;9.27;3.03;;;;;;;;;;10251391;28;20076;-59
2023/06/29 21:25:28;;;;;;;5.57;3.42;;;;;;;;;;10248647;28;20076;-60
2023/06/29 21:30:28;;;;;;;7.03;3.28;;;;;;;;;;10244545;28;20091;-60
2023/06/29 21:35:26;;;;;;;3.60;3.00;;;;;;;;;;10244296;28;20084;-60
2023/06/29 21:40:25;;;;;;;3.50;2.63;;;;;;;;;;10250499;28;20084;-59
2023/06/29 21:45:24;;;;;;;4.40;3.10;;;;;;;;;;10250495;28;20072;-59
2023/06/29 21:50:24;;;;;;;4.82;2.72;;;;;;;;;;10248254;28;20080;-60
2023/06/29 21:55:22;;;;;;;5.07;2.97;;;;;;;;;;10253336;28;20081;-60
2023/06/29 22:00:20;;;;;;;3.95;3.03;;;;;;;;;;10247884;28;20068;-59
2023/06/29 22:05:18;;;;;;;3.50;2.72;;;;;;;;;;10248807;28;20096;-59
2023/06/29 22:10:18;;;;;;;7.20;3.67;;;;;;;;;;10249302;28;20081;-60
2023/06/29 22:15:17;;;;;;;4.40;3.15;;;;;;;;;;10246404;28;20072;-60
2023/06/29 22:20:16;;;;;;;4.18;2.95;;;;;;;;;;10245891;28;20077;-59
2023/06/29 22:25:18;;;;;;;5.75;2.60;;;;;;;;;;10247013;28;20076;-59
2023/06/29 22:30:16;;;;;;;4.68;3.47;;;;;;;;;;10246601;28;20076;-59
2023/06/29 22:35:14;;;;;;;7.35;3.45;;;;;;;;;;10243725;28;20081;-58
2023/06/29 22:40:13;;;;;;;6.15;3.10;;;;;;;;;;10253581;28;20077;-59
2023/06/29 22:45:12;;;;;;;3.33;2.60;;;;;;;;;;10255964;28;20525;-59
2023/06/29 22:50:11;;;;;;;7.97;2.97;;;;;;;;;;10256040;28;20095;-58
2023/06/29 22:55:09;;;;;;;5.00;2.78;;;;;;;;;;10255269;28;20180;-59
2023/06/29 23:00:08;;;;;;;4.70;3.20;;;;;;;;;;10255899;28;20532;-59
2023/06/29 23:05:08;;;;;;;4.53;2.55;;;;;;;;;;10254273;28;20076;-61
2023/06/29 23:10:07;;;;;;;5.95;3.40;;;;;;;;;;10256777;28;20080;-61
2023/06/29 23:15:06;;;;;;;6.30;3.35;;;;;;;;;;10255905;28;20077;-60
2023/06/29 23:20:12;;;;;;;6.55;2.90;;;;;;;;;;10255228;28;20539;-60
2023/06/29 23:25:12;;;;;;;4.70;3.05;;;;;;;;;;10255693;28;20077;-60
2023/06/29 23:30:11;;;;;;;3.70;2.95;;;;;;;;;;10255636;28;20083;-60
2023/06/29 23:35:10;;;;;;;4.30;3.03;;;;;;;;;;10253762;28;20077;-59
2023/06/29 23:40:10;;;;;;;6.85;2.83;;;;;;;;;;10254189;28;20072;-58
2023/06/29 23:45:11;;;;;;;4.05;3.20;;;;;;;;;;10252631;28;20518;-60
2023/06/29 23:50:10;;;;;;;3.55;2.83;;;;;;;;;;10253757;28;20146;-60
2023/06/29 23:55:11;;;;;;;5.88;2.95;;;;;;;;;;10253519;28;20072;-59
